This is the latest recevied weather packets stored in our database for station/object S56IAR-13. If no packets are shown the sender has not sent any weather packets the latest 10 day(s).
| Time | Temp. | Humidity | Pressure | Rain* | Wind** | Luminosity | Snow |
|---|---|---|---|---|---|---|---|
| 1777765033 | 6.67° C | 94% | 967.3 hPa | 0 mm | - | 0 W/m² | - |
| 1777760405 | 7.78° C | 91% | 967.4 hPa | 0 mm | - | 0 W/m² | - |
| 1777759503 | 7.78° C | 90% | 967.5 hPa | 0 mm | - | 0 W/m² | - |
| 1777758004 | 8.33° C | 89% | 967.3 hPa | 0 mm | - | 0 W/m² | - |
| 1777756505 | 8.33° C | 89% | 967.3 hPa | 0 mm | - | 0 W/m² | - |
| 1777750805 | 10.56° C | 85% | 967.3 hPa | 0 mm | - | 0 W/m² | - |
| 1777750203 | 10.56° C | 83% | 967 hPa | 0 mm | - | 0 W/m² | - |
| 1777749604 | 10.56° C | 83% | 967.1 hPa | 0 mm | - | 0 W/m² | - |
| 1777744205 | 12.78° C | 80% | 966.6 hPa | 0 mm | - | 9 W/m² | - |
| 1777743903 | 12.78° C | 80% | 966.7 hPa | 0 mm | - | 12 W/m² | - |
| 1777741805 | 14.44° C | 75% | 966.8 hPa | 0 mm | - | 26 W/m² | - |
| 1777740604 | 15.56° C | 69% | 966.6 hPa | 0 mm | - | 31 W/m² | - |
| 1777739405 | 18.89° C | 56% | 966.6 hPa | 0 mm | - | 36 W/m² | - |
| 1777738505 | 22.22° C | 39% | 966.6 hPa | 0 mm | - | 155 W/m² | - |
| 1777736403 | 22.78° C | 37% | 966.9 hPa | 0 mm | - | 254 W/m² | - |
| 1777735205 | 22.78° C | 37% | 967 hPa | 0 mm | - | 315 W/m² | - |
| 1777732203 | 22.78° C | 39% | 967.3 hPa | 0 mm | - | 463 W/m² | - |
| 1777728903 | 22.78° C | 38% | 967.8 hPa | 0 mm | - | 592 W/m² | - |
| 1777725904 | 22.22° C | 42% | 968.5 hPa | 0 mm | - | 694 W/m² | - |
| 1777725005 | 21.67° C | 41% | 968.7 hPa | 0 mm | - | 720 W/m² | - |
| 1777724833 | 21.67° C | 39% | 968.9 hPa | 0 mm | - | 725 W/m² | - |
| 1777723804 | 21.11° C | 42% | 968.8 hPa | 0 mm | - | 427 W/m² | - |
| 1777722903 | 20.56° C | 42% | 969.1 hPa | 0 mm | - | 420 W/m² | - |
| 1777722305 | 20.56° C | 42% | 969.1 hPa | 0 mm | - | 271 W/m² | - |
| 1777721705 | 20.56° C | 43% | 969.3 hPa | 0 mm | - | 107 W/m² | - |
* Rain latest hour (hover to see other rain measurements)
** Current wind speed in m/s (hover to see current wind gust speed)